sensor_id;sensor_type;location;lat;lon;timestamp;pressure;altitude;pressure_sealevel;temperature;humidity
73338;BME280;61575;49.908;35.556;2023-06-10T00:00:11;99166.75;;;16.87;58.10
73338;BME280;61575;49.908;35.556;2023-06-10T00:03:16;99167.81;;;16.86;58.16
73338;BME280;61575;49.908;35.556;2023-06-10T00:06:19;99164.47;;;16.84;58.21
73338;BME280;61575;49.908;35.556;2023-06-10T00:09:22;99159.28;;;16.82;58.32
73338;BME280;61575;49.908;35.556;2023-06-10T00:12:24;99163.25;;;16.80;58.40
73338;BME280;61575;49.908;35.556;2023-06-10T00:15:26;99153.06;;;16.75;58.55
73338;BME280;61575;49.908;35.556;2023-06-10T00:18:28;99148.91;;;16.73;58.42
73338;BME280;61575;49.908;35.556;2023-06-10T00:21:33;99148.28;;;16.70;58.49
73338;BME280;61575;49.908;35.556;2023-06-10T00:24:41;99144.34;;;16.66;58.71
73338;BME280;61575;49.908;35.556;2023-06-10T00:27:44;99152.91;;;16.63;58.81
73338;BME280;61575;49.908;35.556;2023-06-10T00:30:46;99147.09;;;16.60;58.81
73338;BME280;61575;49.908;35.556;2023-06-10T00:33:47;99149.41;;;16.56;58.79
73338;BME280;61575;49.908;35.556;2023-06-10T00:36:49;99145.00;;;16.55;58.92
73338;BME280;61575;49.908;35.556;2023-06-10T00:39:52;99145.22;;;16.54;59.21
73338;BME280;61575;49.908;35.556;2023-06-10T00:42:54;99134.59;;;16.52;59.15
73338;BME280;61575;49.908;35.556;2023-06-10T00:45:55;99139.41;;;16.50;59.30
73338;BME280;61575;49.908;35.556;2023-06-10T00:48:58;99135.69;;;16.45;59.86
73338;BME280;61575;49.908;35.556;2023-06-10T00:52:01;99128.81;;;16.42;59.79
73338;BME280;61575;49.908;35.556;2023-06-10T00:55:05;99134.69;;;16.39;59.94
73338;BME280;61575;49.908;35.556;2023-06-10T00:58:10;99140.31;;;16.37;59.92
73338;BME280;61575;49.908;35.556;2023-06-10T01:01:12;99129.47;;;16.37;60.12
73338;BME280;61575;49.908;35.556;2023-06-10T01:04:14;99133.25;;;16.36;60.01
73338;BME280;61575;49.908;35.556;2023-06-10T01:07:25;99124.50;;;16.34;60.28
73338;BME280;61575;49.908;35.556;2023-06-10T01:10:33;99117.19;;;16.35;60.55
73338;BME280;61575;49.908;35.556;2023-06-10T01:13:39;99121.78;;;16.34;60.39
73338;BME280;61575;49.908;35.556;2023-06-10T01:16:43;99117.41;;;16.33;60.40
73338;BME280;61575;49.908;35.556;2023-06-10T01:19:57;99115.53;;;16.34;60.46
73338;BME280;61575;49.908;35.556;2023-06-10T01:23:00;99111.16;;;16.33;60.39
73338;BME280;61575;49.908;35.556;2023-06-10T01:26:09;99110.13;;;16.34;60.47
73338;BME280;61575;49.908;35.556;2023-06-10T01:29:20;99106.97;;;16.37;60.69
73338;BME280;61575;49.908;35.556;2023-06-10T01:32:35;99108.84;;;16.36;60.85
73338;BME280;61575;49.908;35.556;2023-06-10T01:35:39;99104.03;;;16.38;60.41
73338;BME280;61575;49.908;35.556;2023-06-10T01:38:44;99109.84;;;16.42;60.70
73338;BME280;61575;49.908;35.556;2023-06-10T01:41:48;99106.09;;;16.43;60.94
73338;BME280;61575;49.908;35.556;2023-06-10T01:44:51;99107.31;;;16.47;60.93
73338;BME280;61575;49.908;35.556;2023-06-10T01:47:53;99109.16;;;16.53;60.70
73338;BME280;61575;49.908;35.556;2023-06-10T01:50:55;99114.56;;;16.60;60.69
73338;BME280;61575;49.908;35.556;2023-06-10T01:54:00;99120.78;;;16.67;60.64
73338;BME280;61575;49.908;35.556;2023-06-10T01:57:02;99113.44;;;16.74;60.79
73338;BME280;61575;49.908;35.556;2023-06-10T02:00:04;99109.63;;;16.82;60.73
73338;BME280;61575;49.908;35.556;2023-06-10T02:03:15;99113.94;;;16.89;60.60
73338;BME280;61575;49.908;35.556;2023-06-10T02:06:17;99111.19;;;16.96;60.57
73338;BME280;61575;49.908;35.556;2023-06-10T02:09:19;99120.09;;;17.03;60.63
73338;BME280;61575;49.908;35.556;2023-06-10T02:12:21;99112.72;;;17.10;60.92
73338;BME280;61575;49.908;35.556;2023-06-10T02:15:23;99109.13;;;17.16;60.88
73338;BME280;61575;49.908;35.556;2023-06-10T02:18:25;99105.09;;;17.25;61.02
73338;BME280;61575;49.908;35.556;2023-06-10T02:21:28;99110.22;;;17.33;60.94
73338;BME280;61575;49.908;35.556;2023-06-10T02:24:30;99114.75;;;17.40;60.54
73338;BME280;61575;49.908;35.556;2023-06-10T02:27:32;99116.13;;;17.49;60.94
73338;BME280;61575;49.908;35.556;2023-06-10T02:30:34;99109.00;;;17.54;61.46
73338;BME280;61575;49.908;35.556;2023-06-10T02:33:36;99104.78;;;17.58;61.41
73338;BME280;61575;49.908;35.556;2023-06-10T02:36:42;99108.31;;;17.59;61.16
73338;BME280;61575;49.908;35.556;2023-06-10T02:39:44;99108.09;;;17.60;61.18
73338;BME280;61575;49.908;35.556;2023-06-10T02:42:46;99109.53;;;17.63;61.19
73338;BME280;61575;49.908;35.556;2023-06-10T02:45:48;99110.53;;;17.69;61.23
73338;BME280;61575;49.908;35.556;2023-06-10T02:48:51;99106.91;;;17.75;61.29
73338;BME280;61575;49.908;35.556;2023-06-10T02:51:56;99111.19;;;17.82;61.44
73338;BME280;61575;49.908;35.556;2023-06-10T02:54:59;99107.13;;;17.91;61.77
73338;BME280;61575;49.908;35.556;2023-06-10T02:58:01;99110.13;;;18.02;61.76
73338;BME280;61575;49.908;35.556;2023-06-10T03:01:05;99114.56;;;18.14;61.60
73338;BME280;61575;49.908;35.556;2023-06-10T03:04:18;99104.59;;;18.26;61.81
73338;BME280;61575;49.908;35.556;2023-06-10T03:07:30;99100.25;;;18.37;61.45
73338;BME280;61575;49.908;35.556;2023-06-10T03:10:34;99102.22;;;18.48;61.51
73338;BME280;61575;49.908;35.556;2023-06-10T03:13:40;99097.66;;;18.60;61.27
73338;BME280;61575;49.908;35.556;2023-06-10T03:16:45;99104.41;;;18.70;60.59
73338;BME280;61575;49.908;35.556;2023-06-10T03:19:49;99097.69;;;18.84;60.26
73338;BME280;61575;49.908;35.556;2023-06-10T03:22:51;99108.25;;;18.92;62.07
73338;BME280;61575;49.908;35.556;2023-06-10T03:25:53;99105.53;;;19.04;60.78
73338;BME280;61575;49.908;35.556;2023-06-10T03:28:58;99102.00;;;19.15;60.37
73338;BME280;61575;49.908;35.556;2023-06-10T03:31:59;99105.13;;;19.30;59.84
73338;BME280;61575;49.908;35.556;2023-06-10T03:35:03;99102.75;;;19.45;59.48
73338;BME280;61575;49.908;35.556;2023-06-10T03:38:06;99107.47;;;19.62;58.33
73338;BME280;61575;49.908;35.556;2023-06-10T03:41:08;99099.13;;;19.80;56.92
73338;BME280;61575;49.908;35.556;2023-06-10T03:44:13;99096.81;;;20.00;56.19
73338;BME280;61575;49.908;35.556;2023-06-10T03:47:15;99096.78;;;20.23;55.15
73338;BME280;61575;49.908;35.556;2023-06-10T03:50:18;99104.28;;;20.45;54.41
73338;BME280;61575;49.908;35.556;2023-06-10T03:53:20;99103.91;;;20.70;53.96
73338;BME280;61575;49.908;35.556;2023-06-10T03:56:22;99108.78;;;20.96;53.44
73338;BME280;61575;49.908;35.556;2023-06-10T03:59:24;99109.19;;;21.22;52.58
73338;BME280;61575;49.908;35.556;2023-06-10T04:02:26;99100.22;;;21.43;51.97
73338;BME280;61575;49.908;35.556;2023-06-10T04:05:28;99104.34;;;21.62;51.23
73338;BME280;61575;49.908;35.556;2023-06-10T04:08:31;99105.16;;;21.79;50.31
73338;BME280;61575;49.908;35.556;2023-06-10T04:11:34;99102.13;;;21.98;49.93
73338;BME280;61575;49.908;35.556;2023-06-10T04:14:36;99097.41;;;22.15;49.34
73338;BME280;61575;49.908;35.556;2023-06-10T04:17:40;99101.97;;;22.31;48.94
73338;BME280;61575;49.908;35.556;2023-06-10T04:20:43;99100.50;;;22.45;47.89
73338;BME280;61575;49.908;35.556;2023-06-10T04:23:47;99108.00;;;22.55;47.74
73338;BME280;61575;49.908;35.556;2023-06-10T04:26:51;99101.81;;;22.65;47.71
73338;BME280;61575;49.908;35.556;2023-06-10T04:29:54;99105.25;;;22.82;46.38
73338;BME280;61575;49.908;35.556;2023-06-10T04:32:57;99104.03;;;23.00;46.84
73338;BME280;61575;49.908;35.556;2023-06-10T04:35:59;99107.81;;;23.21;46.76
73338;BME280;61575;49.908;35.556;2023-06-10T04:39:04;99106.78;;;23.32;45.73
73338;BME280;61575;49.908;35.556;2023-06-10T04:42:09;99108.78;;;23.41;44.96
73338;BME280;61575;49.908;35.556;2023-06-10T04:45:13;99108.09;;;23.61;45.08
73338;BME280;61575;49.908;35.556;2023-06-10T04:48:15;99108.25;;;23.87;45.14
73338;BME280;61575;49.908;35.556;2023-06-10T04:51:17;99110.59;;;24.20;45.27
73338;BME280;61575;49.908;35.556;2023-06-10T04:54:19;99101.34;;;24.47;44.16
73338;BME280;61575;49.908;35.556;2023-06-10T04:57:21;99104.16;;;24.62;43.23
73338;BME280;61575;49.908;35.556;2023-06-10T05:00:23;99103.63;;;24.65;42.29
73338;BME280;61575;49.908;35.556;2023-06-10T05:03:26;99102.53;;;24.81;41.79
73338;BME280;61575;49.908;35.556;2023-06-10T05:06:28;99108.28;;;25.00;41.72
73338;BME280;61575;49.908;35.556;2023-06-10T05:09:30;99113.81;;;25.25;42.09
73338;BME280;61575;49.908;35.556;2023-06-10T05:12:32;99111.88;;;25.51;40.93
73338;BME280;61575;49.908;35.556;2023-06-10T05:15:34;99111.84;;;25.66;40.57
73338;BME280;61575;49.908;35.556;2023-06-10T05:18:36;99115.13;;;25.74;39.73
73338;BME280;61575;49.908;35.556;2023-06-10T05:21:38;99116.75;;;25.90;39.95
73338;BME280;61575;49.908;35.556;2023-06-10T05:24:40;99121.06;;;26.16;40.23
73338;BME280;61575;49.908;35.556;2023-06-10T05:27:42;99112.13;;;26.40;40.10
73338;BME280;61575;49.908;35.556;2023-06-10T05:30:45;99112.63;;;26.57;39.66
73338;BME280;61575;49.908;35.556;2023-06-10T05:33:46;99110.34;;;26.69;39.28
73338;BME280;61575;49.908;35.556;2023-06-10T05:36:48;99111.59;;;26.87;39.18
73338;BME280;61575;49.908;35.556;2023-06-10T05:39:50;99108.44;;;27.04;39.13
73338;BME280;61575;49.908;35.556;2023-06-10T05:42:52;99105.53;;;27.24;38.77
73338;BME280;61575;49.908;35.556;2023-06-10T05:45:54;99113.25;;;27.27;38.00
73338;BME280;61575;49.908;35.556;2023-06-10T05:48:56;99114.16;;;27.46;37.76
73338;BME280;61575;49.908;35.556;2023-06-10T05:51:58;99101.91;;;27.57;38.14
73338;BME280;61575;49.908;35.556;2023-06-10T05:55:04;99114.56;;;27.35;37.31
73338;BME280;61575;49.908;35.556;2023-06-10T05:58:06;99110.53;;;27.22;37.67
73338;BME280;61575;49.908;35.556;2023-06-10T06:01:08;99112.50;;;27.11;36.99
73338;BME280;61575;49.908;35.556;2023-06-10T06:04:10;99108.84;;;27.26;37.12
73338;BME280;61575;49.908;35.556;2023-06-10T06:07:12;99110.09;;;27.68;36.63
73338;BME280;61575;49.908;35.556;2023-06-10T06:10:14;99106.44;;;28.01;36.96
73338;BME280;61575;49.908;35.556;2023-06-10T06:13:16;99112.38;;;28.56;36.53
73338;BME280;61575;49.908;35.556;2023-06-10T06:16:18;99109.31;;;28.76;34.73
73338;BME280;61575;49.908;35.556;2023-06-10T06:19:20;99114.75;;;28.81;33.46
73338;BME280;61575;49.908;35.556;2023-06-10T06:22:22;99112.66;;;28.73;33.17
73338;BME280;61575;49.908;35.556;2023-06-10T06:25:23;99108.94;;;28.83;33.59
73338;BME280;61575;49.908;35.556;2023-06-10T06:28:25;99102.66;;;28.96;33.58
73338;BME280;61575;49.908;35.556;2023-06-10T06:31:30;99108.69;;;29.17;33.73
73338;BME280;61575;49.908;35.556;2023-06-10T06:34:33;99106.06;;;29.26;31.72
73338;BME280;61575;49.908;35.556;2023-06-10T06:37:36;99098.09;;;29.38;31.80
73338;BME280;61575;49.908;35.556;2023-06-10T06:40:52;99098.53;;;29.45;32.06
73338;BME280;61575;49.908;35.556;2023-06-10T06:43:54;99099.81;;;29.66;32.05
73338;BME280;61575;49.908;35.556;2023-06-10T06:47:05;99100.34;;;29.96;31.41
73338;BME280;61575;49.908;35.556;2023-06-10T06:50:07;99101.50;;;30.08;30.69
73338;BME280;61575;49.908;35.556;2023-06-10T06:53:09;99098.38;;;30.24;30.61
73338;BME280;61575;49.908;35.556;2023-06-10T06:56:11;99094.03;;;30.45;29.11
73338;BME280;61575;49.908;35.556;2023-06-10T06:59:13;99094.25;;;30.35;28.80
73338;BME280;61575;49.908;35.556;2023-06-10T07:02:15;99094.75;;;30.51;28.89
73338;BME280;61575;49.908;35.556;2023-06-10T07:05:18;99088.25;;;30.55;27.78
73338;BME280;61575;49.908;35.556;2023-06-10T07:08:20;99091.66;;;30.66;28.21
73338;BME280;61575;49.908;35.556;2023-06-10T07:11:21;99091.16;;;30.64;27.70
73338;BME280;61575;49.908;35.556;2023-06-10T07:14:23;99087.94;;;30.57;27.34
73338;BME280;61575;49.908;35.556;2023-06-10T07:17:25;99086.22;;;30.47;26.69
73338;BME280;61575;49.908;35.556;2023-06-10T07:20:28;99080.81;;;30.42;27.06
73338;BME280;61575;49.908;35.556;2023-06-10T07:23:30;99083.97;;;30.49;26.67
73338;BME280;61575;49.908;35.556;2023-06-10T07:26:32;99089.22;;;30.37;26.73
73338;BME280;61575;49.908;35.556;2023-06-10T07:29:34;99081.13;;;30.40;26.72
73338;BME280;61575;49.908;35.556;2023-06-10T07:32:37;99083.28;;;30.79;26.58
73338;BME280;61575;49.908;35.556;2023-06-10T07:35:39;99081.47;;;30.97;26.06
73338;BME280;61575;49.908;35.556;2023-06-10T07:38:41;99082.22;;;31.11;26.12
73338;BME280;61575;49.908;35.556;2023-06-10T07:41:44;99079.50;;;30.98;24.89
73338;BME280;61575;49.908;35.556;2023-06-10T07:44:46;99076.28;;;30.82;25.07
73338;BME280;61575;49.908;35.556;2023-06-10T07:47:48;99082.00;;;30.63;24.81
73338;BME280;61575;49.908;35.556;2023-06-10T07:50:51;99077.78;;;30.52;25.22
73338;BME280;61575;49.908;35.556;2023-06-10T07:53:53;99076.06;;;30.42;24.27
73338;BME280;61575;49.908;35.556;2023-06-10T07:56:55;99078.16;;;30.37;24.74
73338;BME280;61575;49.908;35.556;2023-06-10T07:59:57;99070.09;;;30.49;24.72
73338;BME280;61575;49.908;35.556;2023-06-10T08:03:02;99072.25;;;30.66;24.33
73338;BME280;61575;49.908;35.556;2023-06-10T08:06:04;99073.97;;;30.98;24.40
73338;BME280;61575;49.908;35.556;2023-06-10T08:09:07;99055.69;;;30.97;24.60
73338;BME280;61575;49.908;35.556;2023-06-10T08:12:09;99064.75;;;31.33;24.24
73338;BME280;61575;49.908;35.556;2023-06-10T08:15:14;99066.16;;;31.53;23.56
73338;BME280;61575;49.908;35.556;2023-06-10T08:18:16;99059.13;;;31.78;23.16
73338;BME280;61575;49.908;35.556;2023-06-10T08:21:18;99058.63;;;31.76;23.14
73338;BME280;61575;49.908;35.556;2023-06-10T08:24:21;99060.66;;;31.93;23.32
73338;BME280;61575;49.908;35.556;2023-06-10T08:27:23;99057.75;;;32.15;23.10
73338;BME280;61575;49.908;35.556;2023-06-10T08:30:25;99047.13;;;32.09;22.25
73338;BME280;61575;49.908;35.556;2023-06-10T08:33:26;99048.81;;;32.27;22.31
73338;BME280;61575;49.908;35.556;2023-06-10T08:36:28;99054.75;;;32.60;22.53
73338;BME280;61575;49.908;35.556;2023-06-10T08:39:30;99051.94;;;32.34;22.23
73338;BME280;61575;49.908;35.556;2023-06-10T08:42:41;99044.91;;;32.36;22.55
73338;BME280;61575;49.908;35.556;2023-06-10T08:45:48;99046.91;;;32.71;22.37
73338;BME280;61575;49.908;35.556;2023-06-10T08:48:52;99040.84;;;32.77;22.53
73338;BME280;61575;49.908;35.556;2023-06-10T08:52:02;99045.91;;;32.49;22.85
73338;BME280;61575;49.908;35.556;2023-06-10T08:55:10;99050.16;;;32.64;23.00
73338;BME280;61575;49.908;35.556;2023-06-10T08:58:13;99033.97;;;32.92;22.69
73338;BME280;61575;49.908;35.556;2023-06-10T09:01:15;99032.16;;;33.22;22.20
73338;BME280;61575;49.908;35.556;2023-06-10T09:04:18;99031.50;;;33.63;22.35
73338;BME280;61575;49.908;35.556;2023-06-10T09:07:21;99034.81;;;33.94;21.41
73338;BME280;61575;49.908;35.556;2023-06-10T09:10:26;99034.72;;;33.82;21.85
73338;BME280;61575;49.908;35.556;2023-06-10T09:13:29;99031.31;;;33.68;21.52
73338;BME280;61575;49.908;35.556;2023-06-10T09:16:31;99027.63;;;33.93;21.30
73338;BME280;61575;49.908;35.556;2023-06-10T09:19:33;99030.59;;;33.88;20.72
73338;BME280;61575;49.908;35.556;2023-06-10T09:22:35;99021.22;;;34.22;21.01
73338;BME280;61575;49.908;35.556;2023-06-10T09:25:38;99010.41;;;34.21;20.91
73338;BME280;61575;49.908;35.556;2023-06-10T09:28:43;99019.63;;;33.83;20.80
73338;BME280;61575;49.908;35.556;2023-06-10T09:31:46;99011.59;;;33.44;20.89
73338;BME280;61575;49.908;35.556;2023-06-10T09:34:48;99017.19;;;33.82;21.34
73338;BME280;61575;49.908;35.556;2023-06-10T09:37:53;99005.03;;;33.86;20.60
73338;BME280;61575;49.908;35.556;2023-06-10T09:40:55;99011.56;;;33.52;20.21
73338;BME280;61575;49.908;35.556;2023-06-10T09:43:57;99014.13;;;33.19;21.09
73338;BME280;61575;49.908;35.556;2023-06-10T09:47:00;99006.63;;;33.03;20.93
73338;BME280;61575;49.908;35.556;2023-06-10T09:50:02;99004.38;;;32.79;21.04
73338;BME280;61575;49.908;35.556;2023-06-10T09:53:06;98999.94;;;32.86;20.81
73338;BME280;61575;49.908;35.556;2023-06-10T09:56:08;99000.41;;;32.97;21.33
73338;BME280;61575;49.908;35.556;2023-06-10T09:59:11;99000.38;;;33.14;20.47
73338;BME280;61575;49.908;35.556;2023-06-10T10:02:17;98997.63;;;33.06;20.07
73338;BME280;61575;49.908;35.556;2023-06-10T10:05:20;98993.75;;;33.45;20.42
73338;BME280;61575;49.908;35.556;2023-06-10T10:08:23;98988.72;;;33.76;20.36
73338;BME280;61575;49.908;35.556;2023-06-10T10:11:25;98985.59;;;34.28;20.39
73338;BME280;61575;49.908;35.556;2023-06-10T10:14:31;98978.25;;;34.44;19.79
73338;BME280;61575;49.908;35.556;2023-06-10T10:17:37;98982.59;;;34.75;20.49
73338;BME280;61575;49.908;35.556;2023-06-10T10:20:52;98982.13;;;34.73;20.30
73338;BME280;61575;49.908;35.556;2023-06-10T10:24:07;98982.34;;;34.47;19.03
73338;BME280;61575;49.908;35.556;2023-06-10T10:27:59;98976.50;;;34.40;20.11
73338;BME280;61575;49.908;35.556;2023-06-10T10:30:47;98972.22;;;34.21;19.71
73338;BME280;61575;49.908;35.556;2023-06-10T10:34:01;98973.88;;;34.14;20.77
73338;BME280;61575;49.908;35.556;2023-06-10T10:37:04;98961.97;;;33.84;20.90
73338;BME280;61575;49.908;35.556;2023-06-10T10:40:07;98968.78;;;34.16;21.07
73338;BME280;61575;49.908;35.556;2023-06-10T10:43:09;98952.44;;;34.35;20.77
73338;BME280;61575;49.908;35.556;2023-06-10T10:46:14;98958.06;;;34.47;20.44
73338;BME280;61575;49.908;35.556;2023-06-10T10:49:18;98952.53;;;34.59;20.32
73338;BME280;61575;49.908;35.556;2023-06-10T10:52:21;98944.56;;;34.70;20.66
73338;BME280;61575;49.908;35.556;2023-06-10T10:55:23;98950.59;;;35.05;20.86
73338;BME280;61575;49.908;35.556;2023-06-10T10:58:26;98936.41;;;34.98;20.25
73338;BME280;61575;49.908;35.556;2023-06-10T11:01:39;98947.91;;;34.64;20.60
73338;BME280;61575;49.908;35.556;2023-06-10T11:04:48;98940.44;;;34.55;19.84
73338;BME280;61575;49.908;35.556;2023-06-10T11:07:54;98949.56;;;34.23;20.40
73338;BME280;61575;49.908;35.556;2023-06-10T11:11:00;98942.69;;;34.20;20.94
73338;BME280;61575;49.908;35.556;2023-06-10T11:17:18;98934.59;;;34.48;20.47
73338;BME280;61575;49.908;35.556;2023-06-10T11:23:50;98942.09;;;34.36;20.43
73338;BME280;61575;49.908;35.556;2023-06-10T11:26:52;98936.72;;;34.31;20.17
73338;BME280;61575;49.908;35.556;2023-06-10T11:33:02;98933.53;;;34.74;20.06
73338;BME280;61575;49.908;35.556;2023-06-10T11:36:07;98934.88;;;34.88;19.41
73338;BME280;61575;49.908;35.556;2023-06-10T11:39:09;98921.50;;;34.94;19.62
73338;BME280;61575;49.908;35.556;2023-06-10T11:42:12;98921.41;;;35.15;19.65
73338;BME280;61575;49.908;35.556;2023-06-10T11:45:17;98922.97;;;35.25;19.82
73338;BME280;61575;49.908;35.556;2023-06-10T11:48:18;98927.81;;;35.03;20.08
73338;BME280;61575;49.908;35.556;2023-06-10T11:51:20;98923.94;;;34.30;20.43
73338;BME280;61575;49.908;35.556;2023-06-10T11:54:22;98918.34;;;33.88;21.12
73338;BME280;61575;49.908;35.556;2023-06-10T11:57:24;98919.28;;;33.33;20.51
73338;BME280;61575;49.908;35.556;2023-06-10T12:00:26;98922.53;;;32.97;21.30
73338;BME280;61575;49.908;35.556;2023-06-10T12:03:36;98915.06;;;32.54;20.88
73338;BME280;61575;49.908;35.556;2023-06-10T12:06:50;98908.53;;;32.16;21.62
73338;BME280;61575;49.908;35.556;2023-06-10T12:09:59;98917.38;;;31.92;21.84
73338;BME280;61575;49.908;35.556;2023-06-10T12:13:12;98909.50;;;31.68;22.57
73338;BME280;61575;49.908;35.556;2023-06-10T12:16:15;98899.59;;;31.45;23.41
73338;BME280;61575;49.908;35.556;2023-06-10T12:19:17;98902.66;;;30.95;26.20
73338;BME280;61575;49.908;35.556;2023-06-10T12:22:19;98903.31;;;30.92;27.12
73338;BME280;61575;49.908;35.556;2023-06-10T12:25:28;98907.97;;;30.83;28.00
73338;BME280;61575;49.908;35.556;2023-06-10T12:28:30;98905.25;;;30.91;28.37
73338;BME280;61575;49.908;35.556;2023-06-10T12:31:32;98903.63;;;30.90;28.66
73338;BME280;61575;49.908;35.556;2023-06-10T12:34:38;98904.97;;;30.70;28.45
73338;BME280;61575;49.908;35.556;2023-06-10T12:37:41;98899.81;;;30.55;28.37
73338;BME280;61575;49.908;35.556;2023-06-10T12:40:44;98891.63;;;30.28;29.04
73338;BME280;61575;49.908;35.556;2023-06-10T12:43:46;98898.13;;;30.23;29.03
73338;BME280;61575;49.908;35.556;2023-06-10T12:46:54;98891.66;;;30.05;28.86
73338;BME280;61575;49.908;35.556;2023-06-10T12:49:57;98887.84;;;30.01;29.10
73338;BME280;61575;49.908;35.556;2023-06-10T12:53:00;98887.78;;;29.93;28.96
73338;BME280;61575;49.908;35.556;2023-06-10T12:56:03;98888.41;;;29.90;29.68
73338;BME280;61575;49.908;35.556;2023-06-10T12:59:05;98875.81;;;29.83;29.45
73338;BME280;61575;49.908;35.556;2023-06-10T13:02:07;98885.97;;;29.74;29.32
73338;BME280;61575;49.908;35.556;2023-06-10T13:05:09;98873.50;;;29.63;29.76
73338;BME280;61575;49.908;35.556;2023-06-10T13:08:16;98868.34;;;29.70;30.25
73338;BME280;61575;49.908;35.556;2023-06-10T13:11:17;98878.50;;;29.75;30.20
73338;BME280;61575;49.908;35.556;2023-06-10T13:14:19;98874.81;;;29.66;30.28
73338;BME280;61575;49.908;35.556;2023-06-10T13:17:21;98874.94;;;29.61;30.16
73338;BME280;61575;49.908;35.556;2023-06-10T13:20:23;98865.50;;;29.62;30.70
73338;BME280;61575;49.908;35.556;2023-06-10T13:23:26;98862.00;;;29.70;30.35
73338;BME280;61575;49.908;35.556;2023-06-10T13:26:28;98854.22;;;29.72;30.39
73338;BME280;61575;49.908;35.556;2023-06-10T13:29:29;98857.38;;;29.79;30.48
73338;BME280;61575;49.908;35.556;2023-06-10T13:32:32;98855.06;;;29.59;30.15
73338;BME280;61575;49.908;35.556;2023-06-10T13:35:34;98857.81;;;29.45;30.12
73338;BME280;61575;49.908;35.556;2023-06-10T13:38:36;98847.69;;;29.54;30.23
73338;BME280;61575;49.908;35.556;2023-06-10T13:41:38;98847.53;;;29.73;29.45
73338;BME280;61575;49.908;35.556;2023-06-10T13:44:40;98856.63;;;29.87;29.05
73338;BME280;61575;49.908;35.556;2023-06-10T13:47:42;98841.00;;;30.05;28.88
73338;BME280;61575;49.908;35.556;2023-06-10T13:50:44;98849.81;;;30.07;29.18
73338;BME280;61575;49.908;35.556;2023-06-10T13:53:47;98844.78;;;30.09;28.82
73338;BME280;61575;49.908;35.556;2023-06-10T13:56:49;98847.84;;;30.07;28.60
73338;BME280;61575;49.908;35.556;2023-06-10T13:59:51;98841.22;;;29.95;28.61
73338;BME280;61575;49.908;35.556;2023-06-10T14:02:53;98843.22;;;29.80;28.86
73338;BME280;61575;49.908;35.556;2023-06-10T14:05:55;98830.00;;;29.77;28.34
73338;BME280;61575;49.908;35.556;2023-06-10T14:08:57;98841.75;;;29.83;28.56
73338;BME280;61575;49.908;35.556;2023-06-10T14:11:59;98834.47;;;29.87;29.02
73338;BME280;61575;49.908;35.556;2023-06-10T14:15:01;98835.16;;;29.93;28.38
73338;BME280;61575;49.908;35.556;2023-06-10T14:18:04;98835.13;;;30.06;28.91
73338;BME280;61575;49.908;35.556;2023-06-10T14:21:06;98831.97;;;29.99;29.01
73338;BME280;61575;49.908;35.556;2023-06-10T14:24:08;98840.16;;;30.04;29.46
73338;BME280;61575;49.908;35.556;2023-06-10T14:27:10;98831.97;;;29.99;29.69
73338;BME280;61575;49.908;35.556;2023-06-10T14:30:12;98841.25;;;29.81;29.46
73338;BME280;61575;49.908;35.556;2023-06-10T14:33:14;98832.75;;;29.77;30.04
73338;BME280;61575;49.908;35.556;2023-06-10T14:36:16;98838.97;;;29.61;30.26
73338;BME280;61575;49.908;35.556;2023-06-10T14:39:18;98844.63;;;29.56;30.94
73338;BME280;61575;49.908;35.556;2023-06-10T14:42:20;98839.50;;;29.35;30.71
73338;BME280;61575;49.908;35.556;2023-06-10T14:45:21;98838.69;;;29.21;30.55
73338;BME280;61575;49.908;35.556;2023-06-10T14:48:23;98843.22;;;29.17;30.80
73338;BME280;61575;49.908;35.556;2023-06-10T14:51:25;98835.94;;;29.07;30.87
73338;BME280;61575;49.908;35.556;2023-06-10T14:54:27;98844.66;;;29.01;31.72
73338;BME280;61575;49.908;35.556;2023-06-10T14:57:29;98839.84;;;28.93;32.78
73338;BME280;61575;49.908;35.556;2023-06-10T15:00:33;98836.66;;;28.99;33.13
73338;BME280;61575;49.908;35.556;2023-06-10T15:03:35;98835.94;;;28.94;33.45
73338;BME280;61575;49.908;35.556;2023-06-10T15:06:37;98832.22;;;28.84;33.82
73338;BME280;61575;49.908;35.556;2023-06-10T15:09:38;98843.47;;;28.74;34.10
73338;BME280;61575;49.908;35.556;2023-06-10T15:12:40;98840.41;;;28.62;34.29
73338;BME280;61575;49.908;35.556;2023-06-10T15:15:42;98844.56;;;28.46;34.95
73338;BME280;61575;49.908;35.556;2023-06-10T15:18:44;98847.00;;;28.34;34.75
73338;BME280;61575;49.908;35.556;2023-06-10T15:21:46;98842.81;;;28.17;34.60
73338;BME280;61575;49.908;35.556;2023-06-10T15:24:47;98845.00;;;28.02;35.17
73338;BME280;61575;49.908;35.556;2023-06-10T15:27:50;98852.78;;;28.00;34.93
73338;BME280;61575;49.908;35.556;2023-06-10T15:30:52;98852.72;;;27.86;35.18
73338;BME280;61575;49.908;35.556;2023-06-10T15:33:54;98852.13;;;27.89;35.66
73338;BME280;61575;49.908;35.556;2023-06-10T15:36:56;98845.03;;;27.83;35.77
73338;BME280;61575;49.908;35.556;2023-06-10T15:39:58;98861.44;;;27.74;36.38
73338;BME280;61575;49.908;35.556;2023-06-10T15:43:00;98847.75;;;27.64;35.62
73338;BME280;61575;49.908;35.556;2023-06-10T15:46:01;98855.50;;;27.43;34.67
73338;BME280;61575;49.908;35.556;2023-06-10T15:49:03;98857.66;;;27.46;34.67
73338;BME280;61575;49.908;35.556;2023-06-10T15:52:05;98862.28;;;27.32;34.89
73338;BME280;61575;49.908;35.556;2023-06-10T15:55:08;98861.81;;;27.25;35.15
73338;BME280;61575;49.908;35.556;2023-06-10T15:58:10;98870.78;;;27.12;35.45
73338;BME280;61575;49.908;35.556;2023-06-10T16:01:12;98872.97;;;27.15;35.80
73338;BME280;61575;49.908;35.556;2023-06-10T16:04:15;98870.22;;;27.15;35.53
73338;BME280;61575;49.908;35.556;2023-06-10T16:07:17;98871.25;;;26.95;36.07